Time;durP1;ratioP1;P1;durP2;ratioP2;P2;SDS_P1;SDS_P2;PMS_P1;PMS_P2;Temp;Humidity;BMP_temperature;BMP_pressure;BME280_temperature;BME280_humidity;BME280_pressure;Samples;Min_cycle;Max_cycle;Signal;HPM_P1;HPM_P2
2023/08/27 00:02:24;;;;;;;;;1.00;1.00;;;;;22.83;100.00;98313.09;6289982;27;97366;-63
2023/08/27 00:05:27;;;;;;;;;3.00;3.00;;;;;22.52;100.00;98301.25;6292614;27;96206;-64
2023/08/27 00:08:30;;;;;;;;;3.20;2.80;;;;;22.36;100.00;98295.34;6270074;27;96391;-64
2023/08/27 00:11:35;;;;;;;;;3.20;3.20;;;;;22.20;100.00;98274.03;6267397;27;96171;-64
2023/08/27 00:14:38;;;;;;;;;3.00;3.00;;;;;22.28;100.00;98265.06;6250187;27;96596;-63
2023/08/27 00:17:41;;;;;;;;;2.00;2.00;;;;;22.23;100.00;98254.22;6277402;27;96460;-64
2023/08/27 00:20:47;;;;;;;;;2.25;2.00;;;;;22.38;100.00;98240.88;6267039;27;96345;-63
2023/08/27 00:23:50;;;;;;;;;3.00;2.00;;;;;22.48;100.00;98265.34;6249451;27;96356;-64
2023/08/27 00:26:55;;;;;;;;;4.00;4.00;;;;;22.63;100.00;98266.06;6267510;27;96390;-64
2023/08/27 00:29:58;;;;;;;;;2.00;2.00;;;;;22.76;100.00;98270.72;6230643;27;97203;-62
2023/08/27 00:33:01;;;;;;;;;1.00;0.80;;;;;22.88;100.00;98226.94;6247435;27;96374;-63
2023/08/27 00:36:05;;;;;;;;;2.00;2.00;;;;;23.03;100.00;98218.25;6232389;27;98610;-64
2023/08/27 00:39:08;;;;;;;;;1.60;1.00;;;;;23.09;100.00;98229.94;6290993;27;96335;-63
2023/08/27 00:42:13;;;;;;;;;1.00;1.00;;;;;23.15;100.00;98234.97;6292288;27;97574;-64
2023/08/27 00:45:16;;;;;;;;;3.00;3.00;;;;;23.18;100.00;98261.00;6275479;27;96534;-65
2023/08/27 00:48:20;;;;;;;;;3.00;2.00;;;;;23.27;100.00;98217.84;6230703;27;97182;-64
2023/08/27 00:51:24;;;;;;;;;2.60;2.60;;;;;23.40;100.00;98218.84;6247703;27;97045;-63
2023/08/27 00:54:28;;;;;;;;;3.00;3.00;;;;;23.49;100.00;98231.50;6241546;27;98573;-64
2023/08/27 00:57:33;;;;;;;;;2.00;2.00;;;;;23.52;100.00;98274.06;6249797;27;96407;-64
2023/08/27 01:00:37;;;;;;;;;3.00;3.00;;;;;23.54;100.00;98297.41;6247622;27;96513;-64
2023/08/27 01:03:41;;;;;;;;;3.00;2.60;;;;;23.42;100.00;98368.69;6265036;27;96385;-65
2023/08/27 01:06:44;;;;;;;;;3.40;3.40;;;;;23.21;100.00;98373.13;6247305;27;96355;-65
2023/08/27 01:09:58;;;;;;;;;3.00;2.00;;;;;23.09;100.00;98373.72;6263983;27;96370;-64
2023/08/27 01:13:05;;;;;;;;;4.00;4.00;;;;;23.06;100.00;98374.38;6246742;27;96363;-63
2023/08/27 01:16:10;;;;;;;;;3.20;3.00;;;;;23.03;100.00;98365.91;6228619;27;99128;-64
2023/08/27 01:19:14;;;;;;;;;2.50;2.50;;;;;22.99;100.00;98331.94;6262382;27;96631;-64
2023/08/27 01:22:19;;;;;;;;;3.00;3.00;;;;;23.13;100.00;98314.22;6245572;27;98962;-63
2023/08/27 01:25:28;;;;;;;;;1.50;1.00;;;;;23.19;100.00;98310.19;6261954;27;96280;-64
2023/08/27 01:28:36;;;;;;;;;2.60;2.60;;;;;23.31;100.00;98299.38;6264718;27;96207;-64
2023/08/27 01:31:44;;;;;;;;;3.00;3.00;;;;;23.35;100.00;98280.31;6255897;27;96395;-64
2023/08/27 01:34:49;;;;;;;;;3.00;3.00;;;;;23.40;100.00;98271.13;6221072;27;96965;-64
2023/08/27 01:37:54;;;;;;;;;2.00;2.00;;;;;23.53;100.00;98276.50;6230123;27;96874;-63
2023/08/27 01:40:57;;;;;;;;;3.00;2.60;;;;;23.56;100.00;98255.78;6247261;27;96883;-63
2023/08/27 01:44:00;;;;;;;;;2.00;2.00;;;;;23.52;100.00;98230.84;6262381;27;96386;-64
2023/08/27 01:47:05;;;;;;;;;1.20;1.20;;;;;23.61;100.00;98225.34;6230549;27;96677;-63
2023/08/27 01:50:08;;;;;;;;;3.00;2.00;;;;;23.65;100.00;98221.63;6264688;27;96336;-65
2023/08/27 01:53:13;;;;;;;;;2.00;2.00;;;;;23.72;100.00;98193.63;6265747;27;96374;-64
2023/08/27 01:56:18;;;;;;;;;2.00;2.00;;;;;23.79;100.00;98204.16;6247037;27;96487;-63
2023/08/27 01:59:21;;;;;;;;;2.00;2.00;;;;;23.83;100.00;98207.88;6246916;27;96915;-64
2023/08/27 02:02:25;;;;;;;;;3.00;3.00;;;;;23.78;100.00;98197.03;6248160;27;96352;-64
2023/08/27 02:05:28;;;;;;;;;2.40;2.40;;;;;23.86;100.00;98230.06;6255639;27;96325;-63
2023/08/27 02:08:33;;;;;;;;;1.00;1.00;;;;;23.88;100.00;98244.31;6290028;27;96352;-64
2023/08/27 02:11:36;;;;;;;;;2.00;1.40;;;;;23.89;100.00;98256.16;6264874;27;98481;-63
2023/08/27 02:14:39;;;;;;;;;2.00;2.00;;;;;23.84;100.00;98237.84;6247240;27;96759;-65
2023/08/27 02:17:42;;;;;;;;;1.20;1.20;;;;;23.79;100.00;98223.44;6265176;27;96337;-64
2023/08/27 02:20:46;;;;;;;;;2.00;2.00;;;;;23.79;100.00;98205.00;6263936;27;96327;-63
2023/08/27 02:23:50;;;;;;;;;3.00;3.00;;;;;23.71;100.00;98211.28;6275213;27;97335;-65
2023/08/27 02:26:54;;;;;;;;;4.00;3.00;;;;;23.72;100.00;98197.22;6265614;27;96291;-64
2023/08/27 02:29:57;;;;;;;;;2.00;2.00;;;;;23.83;100.00;98194.13;6247111;27;98596;-63
2023/08/27 02:33:00;;;;;;;;;2.40;2.00;;;;;23.89;100.00;98170.81;6253234;27;98548;-63
2023/08/27 02:36:04;;;;;;;;;2.00;2.00;;;;;23.97;100.00;98192.81;6265202;27;96535;-64
2023/08/27 02:39:09;;;;;;;;;3.00;2.00;;;;;23.94;100.00;98212.75;6275949;27;96314;-63
2023/08/27 02:42:12;;;;;;;;;3.00;3.00;;;;;23.96;100.00;98229.75;6270680;27;96462;-64
2023/08/27 02:45:15;;;;;;;;;5.00;4.20;;;;;23.94;100.00;98236.72;6263533;27;97977;-64
2023/08/27 02:48:18;;;;;;;;;3.00;3.00;;;;;23.97;100.00;98225.03;6263888;27;96363;-64
2023/08/27 02:51:22;;;;;;;;;4.60;4.00;;;;;23.91;100.00;98205.13;6263907;27;96848;-65
2023/08/27 02:54:26;;;;;;;;;4.00;3.00;;;;;24.00;100.00;98203.16;6260834;27;97075;-63
2023/08/27 02:57:30;;;;;;;;;5.00;4.00;;;;;24.07;100.00;98178.72;6239012;27;96329;-64
2023/08/27 03:00:33;;;;;;;;;4.00;4.00;;;;;24.13;100.00;98162.84;6226316;27;96725;-64
2023/08/27 03:03:36;;;;;;;;;3.00;3.00;;;;;24.19;100.00;98158.00;6265485;27;96667;-65
2023/08/27 03:06:39;;;;;;;;;4.25;4.00;;;;;24.21;100.00;98170.28;6264262;27;96318;-64
2023/08/27 03:09:44;;;;;;;;;4.00;3.20;;;;;24.23;100.00;98183.75;6248208;27;96518;-64
2023/08/27 03:12:48;;;;;;;;;3.40;3.00;;;;;24.25;100.00;98196.03;6247355;27;96669;-64
2023/08/27 03:15:51;;;;;;;;;5.00;5.00;;;;;24.26;100.00;98189.41;6262440;27;97234;-63
2023/08/27 03:18:54;;;;;;;;;4.60;4.60;;;;;24.29;100.00;98191.47;6268470;27;96911;-63
2023/08/27 03:21:58;;;;;;;;;4.50;4.50;;;;;24.31;100.00;98211.25;6267939;27;96464;-64
2023/08/27 03:25:02;;;;;;;;;3.00;3.00;;;;;24.31;100.00;98221.47;6238223;27;96747;-63
2023/08/27 03:28:07;;;;;;;;;4.00;4.00;;;;;24.32;100.00;98225.84;6251763;27;96845;-63
2023/08/27 03:31:10;;;;;;;;;4.00;4.00;;;;;24.26;100.00;98210.63;6269018;27;96797;-64
2023/08/27 03:34:14;;;;;;;;;3.60;3.60;;;;;24.35;100.00;98219.66;6245120;27;96954;-63
2023/08/27 03:37:18;;;;;;;;;4.00;4.00;;;;;24.35;100.00;98225.19;6251649;27;97982;-64
2023/08/27 03:40:23;;;;;;;;;4.00;4.00;;;;;24.28;100.00;98214.69;6251406;27;96368;-64
2023/08/27 03:43:26;;;;;;;;;4.75;4.75;;;;;24.29;100.00;98224.53;6254104;27;96984;-64
2023/08/27 03:46:29;;;;;;;;;5.00;5.00;;;;;24.30;100.00;98219.84;6250506;27;96753;-64
2023/08/27 03:49:32;;;;;;;;;5.00;5.00;;;;;24.29;100.00;98218.25;6266131;27;98467;-64
2023/08/27 03:52:35;;;;;;;;;5.40;5.40;;;;;24.26;100.00;98221.63;6267050;27;96653;-63
2023/08/27 03:55:41;;;;;;;;;5.00;4.40;;;;;24.28;100.00;98224.88;6282386;27;96440;-65
2023/08/27 03:58:45;;;;;;;;;5.00;4.00;;;;;24.26;100.00;98222.44;6250975;27;96241;-64
2023/08/27 04:01:49;;;;;;;;;6.00;5.75;;;;;24.27;100.00;98232.34;6256271;27;96276;-64
2023/08/27 04:04:53;;;;;;;;;6.00;6.00;;;;;24.25;100.00;98233.78;6246805;27;98677;-65
2023/08/27 04:07:57;;;;;;;;;4.00;4.00;;;;;24.24;100.00;98248.72;6275493;27;96643;-64
2023/08/27 04:11:02;;;;;;;;;5.00;5.00;;;;;24.15;100.00;98259.69;6275099;27;96378;-65
2023/08/27 04:14:06;;;;;;;;;4.50;4.50;;;;;24.13;100.00;98264.72;6272778;27;99095;-65
2023/08/27 04:17:09;;;;;;;;;5.25;4.25;;;;;24.13;100.00;98264.72;6287928;27;96372;-64
2023/08/27 04:20:12;;;;;;;;;4.50;4.50;;;;;24.12;100.00;98277.69;6256947;27;96998;-64
2023/08/27 04:23:15;;;;;;;;;6.00;6.00;;;;;24.13;100.00;98281.25;6244536;27;98481;-65
2023/08/27 04:26:21;;;;;;;;;5.60;5.00;;;;;24.12;100.00;98283.19;6275179;27;96914;-64
2023/08/27 04:29:26;;;;;;;;;6.75;6.25;;;;;24.16;100.00;98286.94;6274579;27;97511;-64
2023/08/27 04:32:30;;;;;;;;;6.00;5.00;;;;;24.21;100.00;98301.69;6256936;27;96720;-64
2023/08/27 04:35:33;;;;;;;;;7.00;7.00;;;;;24.24;100.00;98301.84;6255958;27;97079;-65
2023/08/27 04:38:37;;;;;;;;;6.00;6.00;;;;;24.28;100.00;98302.00;6291670;27;96351;-65
2023/08/27 04:41:41;;;;;;;;;9.00;8.00;;;;;24.28;100.00;98305.59;6271994;27;97866;-65
2023/08/27 04:44:44;;;;;;;;;6.80;6.00;;;;;24.29;100.00;98304.41;6272854;27;98652;-64
2023/08/27 04:47:48;;;;;;;;;5.00;5.00;;;;;24.28;100.00;98302.81;6290738;27;96693;-65
2023/08/27 04:50:51;;;;;;;;;4.00;4.00;;;;;24.30;100.00;98310.75;6254218;27;96402;-65
2023/08/27 04:53:55;;;;;;;;;4.50;4.00;;;;;24.31;100.00;98321.44;6246323;27;97644;-64
2023/08/27 04:56:59;;;;;;;;;4.00;3.67;;;;;24.34;100.00;98329.06;6247545;27;98577;-64
2023/08/27 05:00:04;;;;;;;;;4.00;4.00;;;;;24.33;100.00;98338.47;6292599;27;96661;-64
2023/08/27 05:03:08;;;;;;;;;4.40;4.40;;;;;24.37;100.00;98342.19;6259088;27;97775;-65
2023/08/27 05:06:11;;;;;;;;;6.00;5.00;;;;;24.36;100.00;98354.34;6221796;28;99840;-65
2023/08/27 05:09:14;;;;;;;;;4.00;4.00;;;;;24.39;100.00;98350.13;6229516;27;96383;-65
2023/08/27 05:12:19;;;;;;;;;7.80;6.20;;;;;24.46;100.00;98359.53;6247140;27;96344;-65
2023/08/27 05:15:23;;;;;;;;;4.80;4.00;;;;;24.51;100.00;98364.06;6227913;27;98444;-65
2023/08/27 05:18:26;;;;;;;;;5.00;4.60;;;;;24.49;100.00;98364.38;6246462;27;96890;-64
2023/08/27 05:21:30;;;;;;;;;5.00;5.00;;;;;24.55;100.00;98346.56;6240821;27;96318;-64
2023/08/27 05:24:34;;;;;;;;;4.00;4.00;;;;;24.69;100.00;98356.56;6245473;27;96464;-64
2023/08/27 05:27:43;;;;;;;;;6.60;4.60;;;;;24.79;100.00;98350.72;6262387;27;96974;-64
2023/08/27 05:30:47;;;;;;;;;3.00;3.00;;;;;24.90;100.00;98361.13;6261491;27;96856;-65
2023/08/27 05:33:52;;;;;;;;;5.00;5.00;;;;;24.95;100.00;98351.84;6245264;27;96558;-65
2023/08/27 05:36:55;;;;;;;;;5.00;5.00;;;;;25.05;100.00;98358.97;6254012;27;96460;-65
2023/08/27 05:39:58;;;;;;;;;5.00;4.80;;;;;25.10;100.00;98367.06;6245079;27;97695;-65
2023/08/27 05:43:03;;;;;;;;;6.00;5.00;;;;;25.15;100.00;98364.13;6245909;27;98632;-65
2023/08/27 05:46:06;;;;;;;;;4.80;4.80;;;;;25.15;100.00;98367.69;6247086;27;96301;-64
2023/08/27 05:49:09;;;;;;;;;4.20;4.00;;;;;25.21;100.00;98368.34;6262924;27;96667;-64
2023/08/27 05:52:13;;;;;;;;;7.00;6.00;;;;;25.38;100.00;98363.56;6248427;27;96670;-64
2023/08/27 05:55:16;;;;;;;;;7.40;7.00;;;;;25.48;100.00;98356.84;6264385;27;96560;-64
2023/08/27 05:58:21;;;;;;;;;6.00;5.00;;;;;25.55;100.00;98365.47;6247435;27;96379;-64
2023/08/27 06:01:25;;;;;;;;;6.75;6.00;;;;;25.73;100.00;98385.50;6245739;27;96961;-64
2023/08/27 06:04:28;;;;;;;;;4.25;4.25;;;;;25.91;100.00;98391.72;6247033;27;96360;-64
2023/08/27 06:07:32;;;;;;;;;7.00;6.00;;;;;26.03;100.00;98369.72;6261848;27;96388;-64
2023/08/27 06:10:36;;;;;;;;;5.00;4.00;;;;;26.23;100.00;98374.50;6229376;27;96736;-64
2023/08/27 06:13:40;;;;;;;;;5.00;4.00;;;;;26.41;100.00;98373.22;6244400;27;96456;-65
2023/08/27 06:16:44;;;;;;;;;5.00;4.00;;;;;26.64;100.00;98381.94;6246221;27;97309;-64
2023/08/27 06:19:47;;;;;;;;;5.80;4.00;;;;;26.92;100.00;98383.03;6245189;27;97100;-65
2023/08/27 06:22:51;;;;;;;;;5.00;4.40;;;;;27.10;100.00;98372.56;6262705;27;96325;-65
2023/08/27 06:25:55;;;;;;;;;8.00;6.00;;;;;27.14;100.00;98357.69;6242516;27;96616;-65
2023/08/27 06:29:01;;;;;;;;;5.00;5.00;;;;;27.19;100.00;98348.38;6243832;27;97266;-64
2023/08/27 06:32:06;;;;;;;;;7.40;6.00;;;;;27.24;100.00;98330.72;6256697;27;96645;-64
2023/08/27 06:35:10;;;;;;;;;8.00;6.67;;;;;27.37;100.00;98340.66;6256794;27;96775;-65
2023/08/27 06:38:14;;;;;;;;;8.00;8.00;;;;;27.52;100.00;98343.59;6244241;27;98983;-64
2023/08/27 06:41:17;;;;;;;;;8.00;8.00;;;;;27.69;100.00;98336.19;6245116;27;96828;-65
2023/08/27 06:44:26;;;;;;;;;11.00;10.40;;;;;27.93;100.00;98327.84;6226841;27;97617;-65
2023/08/27 06:47:32;;;;;;;;;11.00;11.00;;;;;27.99;100.00;98315.38;6250130;27;96368;-65
2023/08/27 06:50:35;;;;;;;;;15.00;13.50;;;;;28.07;100.00;98311.66;6262716;27;96899;-65
2023/08/27 06:53:39;;;;;;;;;14.00;12.50;;;;;28.07;100.00;98299.78;6263708;27;96532;-65
2023/08/27 06:56:42;;;;;;;;;12.00;11.80;;;;;28.00;100.00;98294.84;6246740;27;96128;-64
2023/08/27 06:59:48;;;;;;;;;11.20;11.20;;;;;28.35;100.00;98306.97;6263962;27;96335;-65
2023/08/27 07:02:51;;;;;;;;;12.00;12.00;;;;;28.57;100.00;98290.94;6262700;27;97518;-65
2023/08/27 07:05:54;;;;;;;;;13.00;11.00;;;;;28.76;100.00;98297.47;6247611;27;96331;-65
2023/08/27 07:08:57;;;;;;;;;11.40;11.00;;;;;29.02;100.00;98312.81;6228200;27;97252;-65
2023/08/27 07:12:01;;;;;;;;;8.60;8.60;;;;;29.29;100.00;98298.84;6247021;27;97209;-65
2023/08/27 07:15:07;;;;;;;;;8.40;8.40;;;;;29.44;100.00;98279.78;6246605;27;96969;-65
2023/08/27 07:18:11;;;;;;;;;8.60;8.00;;;;;29.56;100.00;98276.91;6236398;27;96515;-65
2023/08/27 07:21:15;;;;;;;;;8.00;7.50;;;;;29.67;100.00;98272.38;6243643;27;98497;-68
2023/08/27 07:24:19;;;;;;;;;8.60;8.00;;;;;29.61;100.00;98271.88;6226961;27;97542;-65
2023/08/27 07:27:22;;;;;;;;;7.40;7.00;;;;;29.87;100.00;98276.81;6242958;27;96343;-65
2023/08/27 07:30:27;;;;;;;;;6.00;6.00;;;;;30.18;100.00;98267.59;6224614;27;96725;-65
2023/08/27 07:33:31;;;;;;;;;8.00;8.00;;;;;30.52;100.00;98260.34;6261384;27;96722;-65
2023/08/27 07:36:34;;;;;;;;;5.20;5.00;;;;;30.70;100.00;98261.47;6262685;27;96655;-65
2023/08/27 07:39:37;;;;;;;;;8.00;6.60;;;;;30.90;100.00;98243.56;6259360;27;96878;-65
2023/08/27 07:42:40;;;;;;;;;8.00;8.00;;;;;30.83;100.00;98251.78;6239186;27;97102;-65
2023/08/27 07:45:47;;;;;;;;;8.00;7.50;;;;;31.04;100.00;98236.63;6235950;27;97723;-65
2023/08/27 07:48:52;;;;;;;;;8.00;8.00;;;;;31.21;100.00;98242.53;6241236;27;96736;-65
2023/08/27 07:51:55;;;;;;;;;8.00;8.00;;;;;31.46;100.00;98233.75;6243553;27;96390;-65
2023/08/27 07:54:58;;;;;;;;;8.00;7.20;;;;;31.72;100.00;98225.38;6242089;27;97152;-65
2023/08/27 07:58:01;;;;;;;;;5.00;5.00;;;;;32.06;100.00;98224.25;6228999;27;98457;-65
2023/08/27 08:01:07;;;;;;;;;7.00;7.00;;;;;32.32;100.00;98234.56;6263214;27;96540;-65
2023/08/27 08:04:13;;;;;;;;;9.00;9.00;;;;;32.18;100.00;98215.66;6239902;27;98783;-65
2023/08/27 08:07:16;;;;;;;;;7.00;7.00;;;;;32.08;100.00;98216.31;6277090;27;99685;-66
2023/08/27 08:10:20;;;;;;;;;7.00;7.00;;;;;31.98;100.00;98225.34;6281420;27;96355;-65
2023/08/27 08:13:24;;;;;;;;;8.00;8.00;;;;;32.05;100.00;98221.84;6271520;27;97018;-65
2023/08/27 08:16:28;;;;;;;;;6.60;6.00;;;;;32.09;100.00;98217.13;6283431;27;96744;-65
2023/08/27 08:19:31;;;;;;;;;9.00;8.00;;;;;32.11;100.00;98211.97;6293655;27;96852;-65
2023/08/27 08:22:35;;;;;;;;;7.00;7.00;;;;;32.12;100.00;98206.03;6255448;27;96695;-66
2023/08/27 08:25:38;;;;;;;;;8.00;8.00;;;;;32.10;100.00;98190.84;6266257;27;96783;-66
2023/08/27 08:28:42;;;;;;;;;8.80;7.80;;;;;32.07;100.00;98183.22;6273689;27;96419;-65
2023/08/27 08:31:46;;;;;;;;;8.00;8.00;;;;;32.11;100.00;98173.75;6274828;27;96507;-65
2023/08/27 08:34:50;;;;;;;;;7.00;6.75;;;;;32.12;100.00;98167.00;6267914;27;96616;-67
2023/08/27 08:37:54;;;;;;;;;8.60;8.40;;;;;32.07;100.00;98163.69;6286596;27;96915;-66
2023/08/27 08:41:00;;;;;;;;;7.00;7.00;;;;;32.01;100.00;98159.66;6271483;27;97531;-65
2023/08/27 08:44:09;;;;;;;;;6.20;6.00;;;;;31.96;100.00;98155.22;6264445;27;97196;-66
2023/08/27 08:47:18;;;;;;;;;6.60;6.00;;;;;31.90;100.00;98153.16;6262340;27;96948;-66
2023/08/27 08:50:22;;;;;;;;;6.00;5.60;;;;;31.95;100.00;98162.00;6274757;27;96389;-66
2023/08/27 08:53:26;;;;;;;;;7.00;7.00;;;;;32.04;100.00;98158.91;6270529;27;97700;-65
2023/08/27 08:56:38;;;;;;;;;6.60;6.60;;;;;31.94;100.00;98138.06;6290864;27;96868;-65
2023/08/27 08:59:42;;;;;;;;;6.00;6.00;;;;;32.31;100.00;98145.66;6290827;27;96350;-66
2023/08/27 09:02:47;;;;;;;;;5.20;5.20;;;;;32.83;100.00;98150.19;6288968;27;96595;-66
2023/08/27 09:05:52;;;;;;;;;5.20;5.00;;;;;33.54;100.00;98140.28;6290900;27;96269;-66
2023/08/27 09:08:57;;;;;;;;;5.00;5.00;;;;;34.14;100.00;98120.19;6287744;27;96348;-66
2023/08/27 09:12:02;;;;;;;;;5.60;5.00;;;;;34.61;100.00;98119.84;6291161;27;96432;-66
2023/08/27 09:15:06;;;;;;;;;5.00;4.40;;;;;34.81;100.00;98106.28;6290763;27;96934;-66
2023/08/27 09:18:11;;;;;;;;;6.80;6.20;;;;;34.89;100.00;98079.91;6270922;27;96772;-66
2023/08/27 09:21:14;;;;;;;;;5.00;4.60;;;;;35.33;100.00;98087.03;6254975;27;96681;-66
2023/08/27 09:24:17;;;;;;;;;6.00;6.00;;;;;35.84;100.00;98095.66;6290469;27;96381;-66
2023/08/27 09:27:21;;;;;;;;;6.00;6.00;;;;;36.35;100.00;98099.78;6289327;27;97280;-65
2023/08/27 09:30:24;;;;;;;;;8.00;8.00;;;;;36.81;100.00;98105.06;6291060;27;96925;-66
2023/08/27 09:33:39;;;;;;;;;8.00;8.00;;;;;37.46;100.00;98108.84;6271569;27;98571;-66
2023/08/27 09:36:43;;;;;;;;;7.00;6.00;;;;;37.84;100.00;98116.03;6253044;27;96660;-66
2023/08/27 09:39:46;;;;;;;;;7.00;6.00;;;;;37.58;100.00;98086.63;6285728;27;97338;-66
2023/08/27 09:43:04;;;;;;;;;6.00;6.00;;;;;37.41;100.00;98079.19;6285321;27;96686;-66
2023/08/27 09:46:10;;;;;;;;;6.00;5.20;;;;;36.70;100.00;98079.88;6286522;27;96526;-66
2023/08/27 09:49:14;;;;;;;;;6.00;6.00;;;;;36.17;100.00;98076.66;6271159;27;96462;-66
2023/08/27 09:52:23;;;;;;;;;7.20;6.80;;;;;35.82;100.00;98070.03;6271505;27;96765;-66
2023/08/27 09:55:32;;;;;;;;;8.00;7.00;;;;;35.55;100.00;98080.13;6284387;27;96447;-66
2023/08/27 09:58:38;;;;;;;;;6.00;6.00;;;;;35.83;100.00;98087.63;6285527;27;96356;-66
2023/08/27 10:01:42;;;;;;;;;7.00;6.75;;;;;36.33;100.00;98085.34;6269280;27;96684;-65
2023/08/27 10:04:51;;;;;;;;;5.00;5.00;;;;;36.40;100.00;98085.31;6271429;27;96881;-65
2023/08/27 10:07:59;;;;;;;;;6.00;5.80;;;;;36.78;100.00;98081.41;6288655;27;96395;-65
2023/08/27 10:11:07;;;;;;;;;8.40;8.00;;;;;37.15;100.00;98069.41;6290655;27;97627;-65
2023/08/27 10:14:11;;;;;;;;;7.50;7.00;;;;;37.15;100.00;98080.66;6264838;27;97329;-66
2023/08/27 10:17:16;;;;;;;;;6.40;5.40;;;;;37.12;100.00;98067.47;6247929;27;96499;-65
2023/08/27 10:20:21;;;;;;;;;8.00;8.00;;;;;37.12;100.00;98064.66;6262620;27;97959;-65
2023/08/27 10:23:24;;;;;;;;;9.00;8.00;;;;;37.09;100.00;98061.88;6287514;27;96802;-66
2023/08/27 10:26:29;;;;;;;;;6.75;6.00;;;;;36.97;100.00;98059.56;6285529;27;96353;-65
2023/08/27 10:29:35;;;;;;;;;8.50;7.50;;;;;36.95;100.00;98053.56;6267711;27;97041;-66
2023/08/27 10:32:38;;;;;;;;;7.60;7.60;;;;;37.10;100.00;98047.41;6284864;27;97611;-66
2023/08/27 10:35:43;;;;;;;;;5.40;5.00;;;;;37.72;100.00;98043.47;6241856;27;98452;-66
2023/08/27 10:38:48;;;;;;;;;9.00;8.40;;;;;38.09;100.00;98039.72;6284794;27;96923;-66
2023/08/27 10:41:52;;;;;;;;;5.40;5.00;;;;;38.09;100.00;98048.97;6280726;27;96488;-66
2023/08/27 10:45:11;;;;;;;;;6.00;6.00;;;;;38.40;100.00;98052.53;6256862;27;96953;-67
2023/08/27 10:48:26;;;;;;;;;7.00;7.00;;;;;38.10;100.00;98044.94;6272858;27;96447;-66
2023/08/27 10:51:32;;;;;;;;;9.00;8.00;;;;;37.78;100.00;98030.50;6274869;27;96515;-66
2023/08/27 10:54:39;;;;;;;;;7.00;6.00;;;;;37.70;100.00;98024.19;6285076;27;97443;-66
2023/08/27 10:57:43;;;;;;;;;6.00;6.00;;;;;37.64;100.00;98020.25;6247215;27;96635;-66
2023/08/27 11:01:03;;;;;;;;;7.60;7.60;;;;;37.19;100.00;98025.19;6281670;27;96293;-66
2023/08/27 11:04:07;;;;;;;;;7.60;7.60;;;;;36.80;100.00;98022.78;6259085;27;99411;-66
2023/08/27 11:07:14;;;;;;;;;8.50;8.50;;;;;36.61;100.00;98039.44;6255118;27;98533;-66
2023/08/27 11:10:18;;;;;;;;;9.00;9.00;;;;;36.48;100.00;98028.69;6251112;27;96750;-66
2023/08/27 11:13:35;;;;;;;;;10.00;10.00;;;;;36.23;100.00;98016.88;6274913;27;97037;-65
2023/08/27 11:16:50;;;;;;;;;8.80;7.00;;;;;36.04;100.00;98017.38;6256170;27;96967;-66
2023/08/27 11:19:54;;;;;;;;;7.25;6.50;;;;;36.51;100.00;98010.22;6252474;27;98919;-66
2023/08/27 11:23:00;;;;;;;;;9.75;7.75;;;;;37.16;100.00;98008.38;6256131;27;96407;-66
2023/08/27 11:26:04;;;;;;;;;9.00;9.00;;;;;37.76;100.00;98016.06;6261551;27;96871;-66
2023/08/27 11:29:08;;;;;;;;;10.00;8.00;;;;;38.31;100.00;98009.25;6282984;27;96355;-66
2023/08/27 11:32:12;;;;;;;;;8.00;8.00;;;;;38.46;100.00;98008.56;6276464;27;97244;-66
2023/08/27 11:35:23;;;;;;;;;9.00;8.00;;;;;38.51;100.00;98004.50;6281378;27;96734;-66
2023/08/27 11:38:27;;;;;;;;;7.60;7.60;;;;;37.98;100.00;97994.84;6291591;27;96908;-66
2023/08/27 11:41:36;;;;;;;;;10.00;9.00;;;;;37.18;100.00;97997.53;6283480;27;98455;-66
2023/08/27 11:44:52;;;;;;;;;8.60;8.00;;;;;37.27;100.00;97989.38;6290465;27;96471;-66
2023/08/27 11:47:56;;;;;;;;;9.40;9.40;;;;;36.94;100.00;97988.16;6292512;27;96608;-66
2023/08/27 11:50:59;;;;;;;;;10.00;9.00;;;;;36.66;100.00;97983.63;6269815;27;98850;-65
2023/08/27 11:54:08;;;;;;;;;9.00;8.00;;;;;36.53;100.00;97984.53;6270823;27;99498;-66
2023/08/27 11:57:11;;;;;;;;;8.75;8.50;;;;;36.52;100.00;97982.94;6291661;27;96405;-66
2023/08/27 12:00:16;;;;;;;;;11.00;10.25;;;;;36.93;100.00;97982.94;6290460;27;96676;-66
2023/08/27 12:03:19;;;;;;;;;8.60;8.00;;;;;37.33;100.00;97976.47;6271681;27;99080;-66
2023/08/27 12:06:26;;;;;;;;;11.00;9.80;;;;;37.87;100.00;97987.78;6290523;27;96544;-66
2023/08/27 12:09:31;;;;;;;;;11.00;10.00;;;;;38.28;100.00;97973.47;6288501;27;96692;-66
2023/08/27 12:12:37;;;;;;;;;8.75;8.00;;;;;38.74;100.00;97961.41;6255360;27;98630;-67
2023/08/27 12:15:41;;;;;;;;;9.40;8.80;;;;;38.98;100.00;97968.63;6289397;27;96308;-66
2023/08/27 12:18:47;;;;;;;;;10.00;10.00;;;;;39.16;100.00;97973.88;6254249;27;98714;-67
2023/08/27 12:21:52;;;;;;;;;9.20;8.60;;;;;39.11;100.00;97968.75;6268764;27;96683;-66
2023/08/27 12:25:00;;;;;;;;;10.00;9.00;;;;;38.71;100.00;97967.94;6267447;27;97064;-66
2023/08/27 12:28:03;;;;;;;;;10.00;10.00;;;;;38.55;100.00;97971.44;6276473;27;96566;-67
2023/08/27 12:31:06;;;;;;;;;8.60;8.60;;;;;38.59;100.00;97966.53;6261767;27;99207;-66
2023/08/27 12:34:09;;;;;;;;;8.80;8.80;;;;;38.68;100.00;97965.97;6295413;27;96316;-67
2023/08/27 12:37:15;;;;;;;;;10.40;10.00;;;;;38.70;100.00;97967.13;6284857;27;96383;-66
2023/08/27 12:40:20;;;;;;;;;10.00;10.00;;;;;38.78;100.00;97962.16;6286455;27;96719;-66
2023/08/27 12:43:23;;;;;;;;;10.50;10.00;;;;;38.70;100.00;97957.88;6271601;27;96927;-67
2023/08/27 12:46:27;;;;;;;;;8.40;8.00;;;;;38.46;100.00;97963.53;6261284;27;96538;-67
2023/08/27 12:49:31;;;;;;;;;10.20;9.80;;;;;38.44;100.00;97957.53;6273437;27;97386;-66
2023/08/27 12:52:34;;;;;;;;;12.00;11.40;;;;;38.57;100.00;97955.69;6293127;27;96634;-66
2023/08/27 12:55:39;;;;;;;;;11.00;10.00;;;;;38.69;100.00;97957.09;6293860;27;96835;-66
2023/08/27 12:58:42;;;;;;;;;10.00;10.00;;;;;38.64;100.00;97954.75;6273342;27;98417;-66
2023/08/27 13:01:46;;;;;;;;;10.00;10.00;;;;;38.38;100.00;97952.78;6272187;27;98094;-66
2023/08/27 13:04:49;;;;;;;;;9.67;9.00;;;;;38.25;100.00;97947.00;6291580;27;96628;-68
2023/08/27 13:07:52;;;;;;;;;8.80;8.80;;;;;38.32;100.00;97946.06;6292928;27;96343;-67
2023/08/27 13:10:57;;;;;;;;;8.50;8.00;;;;;38.47;100.00;97936.94;6289312;27;96556;-67
2023/08/27 13:14:01;;;;;;;;;10.20;9.20;;;;;38.46;100.00;97935.34;6274593;27;96309;-66
2023/08/27 13:17:04;;;;;;;;;10.00;10.00;;;;;38.45;100.00;97925.34;6293015;27;96409;-67
2023/08/27 13:20:08;;;;;;;;;11.00;10.00;;;;;38.44;100.00;97929.38;6293885;27;96400;-66
2023/08/27 13:23:11;;;;;;;;;10.00;9.20;;;;;38.48;100.00;97921.66;6293700;27;96390;-67
2023/08/27 13:26:17;;;;;;;;;14.75;11.00;;;;;38.43;100.00;97922.13;6294309;27;96399;-66
2023/08/27 13:29:20;;;;;;;;;10.00;10.00;;;;;38.40;100.00;97920.19;6269104;27;96484;-66
2023/08/27 13:32:23;;;;;;;;;13.00;11.00;;;;;38.41;100.00;97921.78;6277331;27;99115;-67
2023/08/27 13:35:26;;;;;;;;;11.50;10.00;;;;;38.39;100.00;97912.16;6273734;27;96584;-66
2023/08/27 13:38:30;;;;;;;;;11.00;11.00;;;;;38.41;100.00;97915.34;6275101;27;96388;-66
2023/08/27 13:41:36;;;;;;;;;10.40;9.00;;;;;38.52;100.00;97928.00;6292981;27;96316;-66
2023/08/27 13:44:40;;;;;;;;;9.60;9.60;;;;;38.60;100.00;97920.25;6293407;27;96262;-67
2023/08/27 13:47:43;;;;;;;;;10.80;9.80;;;;;38.48;100.00;97916.03;6274347;27;98759;-66
2023/08/27 13:50:47;;;;;;;;;11.00;11.00;;;;;38.39;100.00;97912.94;6291337;27;96380;-67
2023/08/27 13:53:50;;;;;;;;;10.00;9.00;;;;;38.30;100.00;97912.72;6290855;27;96457;-67
2023/08/27 13:56:55;;;;;;;;;12.40;11.40;;;;;38.32;100.00;97912.25;6273169;27;98441;-66
2023/08/27 13:59:58;;;;;;;;;13.00;10.40;;;;;38.27;100.00;97899.47;6289534;27;96533;-66
2023/08/27 14:03:01;;;;;;;;;11.50;11.50;;;;;38.20;100.00;97899.63;6254869;27;98832;-67
2023/08/27 14:06:05;;;;;;;;;16.75;14.00;;;;;38.08;100.00;97903.03;6291323;27;96258;-66
2023/08/27 14:09:08;;;;;;;;;11.00;10.00;;;;;37.95;100.00;97904.84;6273684;27;96378;-67
2023/08/27 14:12:13;;;;;;;;;10.00;10.00;;;;;37.85;100.00;97912.25;6268206;27;99047;-66
2023/08/27 14:15:18;;;;;;;;;12.00;12.00;;;;;37.75;100.00;97904.78;6272949;27;99214;-67